sensor_id;sensor_type;location;lat;lon;timestamp;temperature;humidity
11045;DHT22;9786;42.714;23.272;2024-03-22T00:00:12;7.70;51.60
11045;DHT22;9786;42.714;23.272;2024-03-22T00:02:39;7.60;53.40
11045;DHT22;9786;42.714;23.272;2024-03-22T00:05:07;7.60;52.80
11045;DHT22;9786;42.714;23.272;2024-03-22T00:07:34;7.60;52.00
11045;DHT22;9786;42.714;23.272;2024-03-22T00:10:07;7.60;53.20
11045;DHT22;9786;42.714;23.272;2024-03-22T00:12:34;7.50;52.40
11045;DHT22;9786;42.714;23.272;2024-03-22T00:15:03;7.50;52.40
11045;DHT22;9786;42.714;23.272;2024-03-22T00:17:30;7.50;53.40
11045;DHT22;9786;42.714;23.272;2024-03-22T00:19:58;7.50;53.40
11045;DHT22;9786;42.714;23.272;2024-03-22T00:22:25;7.50;53.00
11045;DHT22;9786;42.714;23.272;2024-03-22T00:24:56;7.40;53.30
11045;DHT22;9786;42.714;23.272;2024-03-22T00:27:24;7.40;53.20
11045;DHT22;9786;42.714;23.272;2024-03-22T00:29:52;7.40;53.30
11045;DHT22;9786;42.714;23.272;2024-03-22T00:32:19;7.30;52.70
11045;DHT22;9786;42.714;23.272;2024-03-22T00:34:47;7.40;53.30
11045;DHT22;9786;42.714;23.272;2024-03-22T00:37:15;7.30;53.50
11045;DHT22;9786;42.714;23.272;2024-03-22T00:39:44;7.30;54.20
11045;DHT22;9786;42.714;23.272;2024-03-22T00:42:11;7.20;53.40
11045;DHT22;9786;42.714;23.272;2024-03-22T00:44:41;7.20;54.50
11045;DHT22;9786;42.714;23.272;2024-03-22T00:47:08;7.10;54.70
11045;DHT22;9786;42.714;23.272;2024-03-22T00:49:36;7.00;54.30
11045;DHT22;9786;42.714;23.272;2024-03-22T00:52:06;7.00;54.50
11045;DHT22;9786;42.714;23.272;2024-03-22T00:54:37;6.90;54.60
11045;DHT22;9786;42.714;23.272;2024-03-22T00:57:07;6.90;55.70
11045;DHT22;9786;42.714;23.272;2024-03-22T00:59:35;6.90;54.80
11045;DHT22;9786;42.714;23.272;2024-03-22T01:02:03;6.80;54.30
11045;DHT22;9786;42.714;23.272;2024-03-22T01:04:32;6.80;55.00
11045;DHT22;9786;42.714;23.272;2024-03-22T01:07:01;6.80;55.40
11045;DHT22;9786;42.714;23.272;2024-03-22T01:09:29;6.80;54.90
11045;DHT22;9786;42.714;23.272;2024-03-22T01:11:56;6.80;55.20
11045;DHT22;9786;42.714;23.272;2024-03-22T01:14:26;6.80;54.90
11045;DHT22;9786;42.714;23.272;2024-03-22T01:16:53;6.70;55.50
11045;DHT22;9786;42.714;23.272;2024-03-22T01:19:24;6.70;55.90
11045;DHT22;9786;42.714;23.272;2024-03-22T01:21:51;6.70;56.00
11045;DHT22;9786;42.714;23.272;2024-03-22T01:24:19;6.70;56.10
11045;DHT22;9786;42.714;23.272;2024-03-22T01:26:46;6.60;55.90
11045;DHT22;9786;42.714;23.272;2024-03-22T01:29:16;6.60;56.70
11045;DHT22;9786;42.714;23.272;2024-03-22T01:31:44;6.60;56.30
11045;DHT22;9786;42.714;23.272;2024-03-22T01:34:12;6.50;55.80
11045;DHT22;9786;42.714;23.272;2024-03-22T01:36:40;6.40;56.10
11045;DHT22;9786;42.714;23.272;2024-03-22T01:39:08;6.40;55.70
11045;DHT22;9786;42.714;23.272;2024-03-22T01:41:35;6.40;56.20
11045;DHT22;9786;42.714;23.272;2024-03-22T01:44:04;6.30;55.80
11045;DHT22;9786;42.714;23.272;2024-03-22T01:46:31;6.30;55.70
11045;DHT22;9786;42.714;23.272;2024-03-22T01:49:00;6.30;55.60
11045;DHT22;9786;42.714;23.272;2024-03-22T01:51:28;6.30;55.50
11045;DHT22;9786;42.714;23.272;2024-03-22T01:53:59;6.30;55.70
11045;DHT22;9786;42.714;23.272;2024-03-22T01:56:28;6.30;56.90
11045;DHT22;9786;42.714;23.272;2024-03-22T01:58:56;6.30;56.80
11045;DHT22;9786;42.714;23.272;2024-03-22T02:01:24;6.10;57.30
11045;DHT22;9786;42.714;23.272;2024-03-22T02:03:52;6.00;57.60
11045;DHT22;9786;42.714;23.272;2024-03-22T02:06:20;5.90;57.40
11045;DHT22;9786;42.714;23.272;2024-03-22T02:08:48;5.90;58.10
11045;DHT22;9786;42.714;23.272;2024-03-22T02:11:16;5.80;58.10
11045;DHT22;9786;42.714;23.272;2024-03-22T02:13:45;5.80;58.40
11045;DHT22;9786;42.714;23.272;2024-03-22T02:16:12;5.80;58.10
11045;DHT22;9786;42.714;23.272;2024-03-22T02:18:43;5.70;58.60
11045;DHT22;9786;42.714;23.272;2024-03-22T02:21:11;5.70;59.60
11045;DHT22;9786;42.714;23.272;2024-03-22T02:23:41;5.60;59.10
11045;DHT22;9786;42.714;23.272;2024-03-22T02:26:08;5.50;59.90
11045;DHT22;9786;42.714;23.272;2024-03-22T02:28:38;5.40;60.30
11045;DHT22;9786;42.714;23.272;2024-03-22T02:31:08;5.40;60.40
11045;DHT22;9786;42.714;23.272;2024-03-22T02:33:38;5.30;61.30
11045;DHT22;9786;42.714;23.272;2024-03-22T02:36:06;5.30;60.50
11045;DHT22;9786;42.714;23.272;2024-03-22T02:38:35;5.30;61.20
11045;DHT22;9786;42.714;23.272;2024-03-22T02:41:04;5.20;62.90
11045;DHT22;9786;42.714;23.272;2024-03-22T02:43:32;5.20;61.60
11045;DHT22;9786;42.714;23.272;2024-03-22T02:45:59;5.00;63.30
11045;DHT22;9786;42.714;23.272;2024-03-22T02:48:27;4.90;63.60
11045;DHT22;9786;42.714;23.272;2024-03-22T02:50:56;5.00;62.60
11045;DHT22;9786;42.714;23.272;2024-03-22T02:53:26;5.00;62.90
11045;DHT22;9786;42.714;23.272;2024-03-22T02:55:53;4.90;62.20
11045;DHT22;9786;42.714;23.272;2024-03-22T02:58:23;4.80;62.80
11045;DHT22;9786;42.714;23.272;2024-03-22T03:00:50;4.80;62.80
11045;DHT22;9786;42.714;23.272;2024-03-22T03:03:18;4.90;63.00
11045;DHT22;9786;42.714;23.272;2024-03-22T03:05:45;4.90;62.30
11045;DHT22;9786;42.714;23.272;2024-03-22T03:08:13;4.80;62.00
11045;DHT22;9786;42.714;23.272;2024-03-22T03:10:40;4.80;62.10
11045;DHT22;9786;42.714;23.272;2024-03-22T03:13:08;4.80;62.40
11045;DHT22;9786;42.714;23.272;2024-03-22T03:15:37;4.80;61.90
11045;DHT22;9786;42.714;23.272;2024-03-22T03:18:06;4.80;62.50
11045;DHT22;9786;42.714;23.272;2024-03-22T03:20:34;4.70;62.90
11045;DHT22;9786;42.714;23.272;2024-03-22T03:23:04;4.70;62.70
11045;DHT22;9786;42.714;23.272;2024-03-22T03:25:32;4.70;63.40
11045;DHT22;9786;42.714;23.272;2024-03-22T03:27:59;4.60;62.80
11045;DHT22;9786;42.714;23.272;2024-03-22T03:30:27;4.60;63.50
11045;DHT22;9786;42.714;23.272;2024-03-22T03:32:55;4.50;64.20
11045;DHT22;9786;42.714;23.272;2024-03-22T03:35:24;4.40;64.00
11045;DHT22;9786;42.714;23.272;2024-03-22T03:37:54;4.30;63.80
11045;DHT22;9786;42.714;23.272;2024-03-22T03:40:23;4.20;64.60
11045;DHT22;9786;42.714;23.272;2024-03-22T03:42:51;4.20;64.10
11045;DHT22;9786;42.714;23.272;2024-03-22T03:45:19;4.20;64.20
11045;DHT22;9786;42.714;23.272;2024-03-22T03:47:49;4.20;64.00
11045;DHT22;9786;42.714;23.272;2024-03-22T03:50:18;4.30;65.20
11045;DHT22;9786;42.714;23.272;2024-03-22T03:52:45;4.20;64.50
11045;DHT22;9786;42.714;23.272;2024-03-22T03:55:14;4.30;64.80
11045;DHT22;9786;42.714;23.272;2024-03-22T03:57:45;4.20;64.10
11045;DHT22;9786;42.714;23.272;2024-03-22T04:00:13;4.20;64.10
11045;DHT22;9786;42.714;23.272;2024-03-22T04:02:41;4.10;65.40
11045;DHT22;9786;42.714;23.272;2024-03-22T04:05:09;3.80;67.60
11045;DHT22;9786;42.714;23.272;2024-03-22T04:07:38;3.80;67.20
11045;DHT22;9786;42.714;23.272;2024-03-22T04:10:09;3.90;67.00
11045;DHT22;9786;42.714;23.272;2024-03-22T04:12:37;3.80;67.40
11045;DHT22;9786;42.714;23.272;2024-03-22T04:15:07;3.90;67.10
11045;DHT22;9786;42.714;23.272;2024-03-22T04:17:35;4.00;67.50
11045;DHT22;9786;42.714;23.272;2024-03-22T04:20:04;3.90;67.80
11045;DHT22;9786;42.714;23.272;2024-03-22T04:22:32;4.00;66.70
11045;DHT22;9786;42.714;23.272;2024-03-22T04:25:05;4.20;66.90
11045;DHT22;9786;42.714;23.272;2024-03-22T04:27:35;4.20;66.20
11045;DHT22;9786;42.714;23.272;2024-03-22T04:30:05;4.20;66.30
11045;DHT22;9786;42.714;23.272;2024-03-22T04:32:32;4.30;66.20
11045;DHT22;9786;42.714;23.272;2024-03-22T04:35:02;4.40;66.20
11045;DHT22;9786;42.714;23.272;2024-03-22T04:37:29;4.40;65.50
11045;DHT22;9786;42.714;23.272;2024-03-22T04:39:58;4.40;65.60
11045;DHT22;9786;42.714;23.272;2024-03-22T04:42:27;4.40;65.10
11045;DHT22;9786;42.714;23.272;2024-03-22T04:44:56;4.40;65.40
11045;DHT22;9786;42.714;23.272;2024-03-22T04:47:24;4.40;65.30
11045;DHT22;9786;42.714;23.272;2024-03-22T04:49:54;4.40;65.90
11045;DHT22;9786;42.714;23.272;2024-03-22T04:52:22;4.40;65.70
11045;DHT22;9786;42.714;23.272;2024-03-22T04:54:51;4.30;66.80
11045;DHT22;9786;42.714;23.272;2024-03-22T04:57:20;4.40;66.70
11045;DHT22;9786;42.714;23.272;2024-03-22T04:59:50;4.40;66.40
11045;DHT22;9786;42.714;23.272;2024-03-22T05:02:19;4.40;66.00
11045;DHT22;9786;42.714;23.272;2024-03-22T05:04:52;4.40;66.10
11045;DHT22;9786;42.714;23.272;2024-03-22T05:07:19;4.40;67.00
11045;DHT22;9786;42.714;23.272;2024-03-22T05:09:47;4.50;66.80
11045;DHT22;9786;42.714;23.272;2024-03-22T05:12:18;4.50;66.20
11045;DHT22;9786;42.714;23.272;2024-03-22T05:14:46;4.60;66.50
11045;DHT22;9786;42.714;23.272;2024-03-22T05:17:17;4.70;66.10
11045;DHT22;9786;42.714;23.272;2024-03-22T05:19:47;4.90;66.10
11045;DHT22;9786;42.714;23.272;2024-03-22T05:22:22;5.10;66.00
11045;DHT22;9786;42.714;23.272;2024-03-22T05:24:49;5.50;66.00
11045;DHT22;9786;42.714;23.272;2024-03-22T05:27:17;6.10;65.30
11045;DHT22;9786;42.714;23.272;2024-03-22T05:29:45;6.50;63.70
11045;DHT22;9786;42.714;23.272;2024-03-22T05:32:13;6.90;61.70
11045;DHT22;9786;42.714;23.272;2024-03-22T05:34:44;7.30;60.50
11045;DHT22;9786;42.714;23.272;2024-03-22T05:37:12;7.70;60.10
11045;DHT22;9786;42.714;23.272;2024-03-22T05:39:39;8.10;58.40
11045;DHT22;9786;42.714;23.272;2024-03-22T05:42:09;8.40;56.30
11045;DHT22;9786;42.714;23.272;2024-03-22T05:44:36;8.60;55.60
11045;DHT22;9786;42.714;23.272;2024-03-22T05:47:04;9.00;55.40
11045;DHT22;9786;42.714;23.272;2024-03-22T05:49:32;9.00;55.20
11045;DHT22;9786;42.714;23.272;2024-03-22T05:52:02;9.10;55.20
11045;DHT22;9786;42.714;23.272;2024-03-22T05:54:29;9.20;54.70
11045;DHT22;9786;42.714;23.272;2024-03-22T05:56:57;9.10;54.00
11045;DHT22;9786;42.714;23.272;2024-03-22T05:59:24;9.40;53.80
11045;DHT22;9786;42.714;23.272;2024-03-22T06:01:57;9.70;52.00
11045;DHT22;9786;42.714;23.272;2024-03-22T06:04:26;10.10;53.00
11045;DHT22;9786;42.714;23.272;2024-03-22T06:06:54;11.00;51.00
11045;DHT22;9786;42.714;23.272;2024-03-22T06:09:23;10.80;49.80
11045;DHT22;9786;42.714;23.272;2024-03-22T06:12:00;10.30;50.70
11045;DHT22;9786;42.714;23.272;2024-03-22T06:14:29;10.70;49.80
11045;DHT22;9786;42.714;23.272;2024-03-22T06:16:57;11.00;49.60
11045;DHT22;9786;42.714;23.272;2024-03-22T06:19:24;11.40;47.10
11045;DHT22;9786;42.714;23.272;2024-03-22T06:21:52;12.50;46.40
11045;DHT22;9786;42.714;23.272;2024-03-22T06:24:19;12.90;44.80
11045;DHT22;9786;42.714;23.272;2024-03-22T06:26:49;12.80;45.90
11045;DHT22;9786;42.714;23.272;2024-03-22T06:29:17;14.40;42.30
11045;DHT22;9786;42.714;23.272;2024-03-22T06:31:45;15.30;40.20
11045;DHT22;9786;42.714;23.272;2024-03-22T06:34:12;15.90;39.40
11045;DHT22;9786;42.714;23.272;2024-03-22T06:36:41;14.70;38.00
11045;DHT22;9786;42.714;23.272;2024-03-22T06:39:09;13.60;40.20
11045;DHT22;9786;42.714;23.272;2024-03-22T06:41:37;13.10;41.60
11045;DHT22;9786;42.714;23.272;2024-03-22T06:44:06;13.30;42.20
11045;DHT22;9786;42.714;23.272;2024-03-22T06:46:35;13.90;42.80
11045;DHT22;9786;42.714;23.272;2024-03-22T06:49:04;15.10;39.70
11045;DHT22;9786;42.714;23.272;2024-03-22T06:51:32;13.50;40.30
11045;DHT22;9786;42.714;23.272;2024-03-22T06:53:59;13.40;41.60
11045;DHT22;9786;42.714;23.272;2024-03-22T06:56:28;13.60;42.60
11045;DHT22;9786;42.714;23.272;2024-03-22T06:58:55;14.50;39.60
11045;DHT22;9786;42.714;23.272;2024-03-22T07:01:24;14.00;41.60
11045;DHT22;9786;42.714;23.272;2024-03-22T07:03:52;14.50;41.90
11045;DHT22;9786;42.714;23.272;2024-03-22T07:06:20;15.40;39.30
11045;DHT22;9786;42.714;23.272;2024-03-22T07:08:48;13.80;40.50
11045;DHT22;9786;42.714;23.272;2024-03-22T07:11:16;13.80;39.50
11045;DHT22;9786;42.714;23.272;2024-03-22T07:13:43;15.20;41.00
11045;DHT22;9786;42.714;23.272;2024-03-22T07:16:11;14.70;38.20
11045;DHT22;9786;42.714;23.272;2024-03-22T07:18:40;14.00;38.90
11045;DHT22;9786;42.714;23.272;2024-03-22T07:21:09;13.40;40.60
11045;DHT22;9786;42.714;23.272;2024-03-22T07:23:37;13.00;41.80
11045;DHT22;9786;42.714;23.272;2024-03-22T07:26:05;13.10;41.30
11045;DHT22;9786;42.714;23.272;2024-03-22T07:28:34;14.00;41.40
11045;DHT22;9786;42.714;23.272;2024-03-22T07:31:03;13.80;40.30
11045;DHT22;9786;42.714;23.272;2024-03-22T07:33:31;13.70;41.80
11045;DHT22;9786;42.714;23.272;2024-03-22T07:36:03;13.70;40.10
11045;DHT22;9786;42.714;23.272;2024-03-22T07:38:30;14.60;39.60
11045;DHT22;9786;42.714;23.272;2024-03-22T07:40:59;14.30;39.70
11045;DHT22;9786;42.714;23.272;2024-03-22T07:43:28;14.30;38.00
11045;DHT22;9786;42.714;23.272;2024-03-22T07:45:56;14.50;38.60
11045;DHT22;9786;42.714;23.272;2024-03-22T07:48:23;14.40;38.20
11045;DHT22;9786;42.714;23.272;2024-03-22T07:50:56;14.80;37.70
11045;DHT22;9786;42.714;23.272;2024-03-22T07:53:25;15.20;39.20
11045;DHT22;9786;42.714;23.272;2024-03-22T07:55:53;15.70;36.40
11045;DHT22;9786;42.714;23.272;2024-03-22T07:58:20;15.10;36.80
11045;DHT22;9786;42.714;23.272;2024-03-22T08:00:48;15.20;36.20
11045;DHT22;9786;42.714;23.272;2024-03-22T08:03:16;15.50;36.90
11045;DHT22;9786;42.714;23.272;2024-03-22T08:05:44;15.60;35.90
11045;DHT22;9786;42.714;23.272;2024-03-22T08:08:12;15.70;35.60
11045;DHT22;9786;42.714;23.272;2024-03-22T08:10:42;15.50;36.00
11045;DHT22;9786;42.714;23.272;2024-03-22T08:13:11;15.90;37.10
11045;DHT22;9786;42.714;23.272;2024-03-22T08:15:40;16.20;36.60
11045;DHT22;9786;42.714;23.272;2024-03-22T08:18:10;16.10;36.40
11045;DHT22;9786;42.714;23.272;2024-03-22T08:20:38;15.90;35.20
11045;DHT22;9786;42.714;23.272;2024-03-22T08:23:06;16.70;34.00
11045;DHT22;9786;42.714;23.272;2024-03-22T08:25:35;16.70;34.10
11045;DHT22;9786;42.714;23.272;2024-03-22T08:28:05;16.80;33.60
11045;DHT22;9786;42.714;23.272;2024-03-22T08:30:36;16.50;33.40
11045;DHT22;9786;42.714;23.272;2024-03-22T08:33:04;16.50;33.10
11045;DHT22;9786;42.714;23.272;2024-03-22T08:35:32;16.00;33.90
11045;DHT22;9786;42.714;23.272;2024-03-22T08:37:59;16.20;33.80
11045;DHT22;9786;42.714;23.272;2024-03-22T08:40:27;16.90;33.90
11045;DHT22;9786;42.714;23.272;2024-03-22T08:42:57;16.30;32.20
11045;DHT22;9786;42.714;23.272;2024-03-22T08:45:28;16.40;33.60
11045;DHT22;9786;42.714;23.272;2024-03-22T08:47:56;16.30;33.00
11045;DHT22;9786;42.714;23.272;2024-03-22T08:50:24;16.40;33.90
11045;DHT22;9786;42.714;23.272;2024-03-22T08:52:52;16.60;35.20
11045;DHT22;9786;42.714;23.272;2024-03-22T08:55:20;16.40;34.40
11045;DHT22;9786;42.714;23.272;2024-03-22T08:57:47;17.10;34.90
11045;DHT22;9786;42.714;23.272;2024-03-22T09:00:17;17.20;35.20
11045;DHT22;9786;42.714;23.272;2024-03-22T09:02:45;17.30;34.60
11045;DHT22;9786;42.714;23.272;2024-03-22T09:05:14;17.70;33.90
11045;DHT22;9786;42.714;23.272;2024-03-22T09:07:41;17.30;35.20
11045;DHT22;9786;42.714;23.272;2024-03-22T09:10:11;17.30;34.90
11045;DHT22;9786;42.714;23.272;2024-03-22T09:12:39;17.70;31.50
11045;DHT22;9786;42.714;23.272;2024-03-22T09:15:08;18.40;32.20
11045;DHT22;9786;42.714;23.272;2024-03-22T09:17:35;18.10;31.90
11045;DHT22;9786;42.714;23.272;2024-03-22T09:20:06;17.70;31.30
11045;DHT22;9786;42.714;23.272;2024-03-22T09:22:34;17.50;32.50
11045;DHT22;9786;42.714;23.272;2024-03-22T09:25:03;17.10;31.40
11045;DHT22;9786;42.714;23.272;2024-03-22T09:27:31;17.20;31.40
11045;DHT22;9786;42.714;23.272;2024-03-22T09:29:59;17.20;33.90
11045;DHT22;9786;42.714;23.272;2024-03-22T09:32:31;17.50;33.50
11045;DHT22;9786;42.714;23.272;2024-03-22T09:34:58;17.80;32.90
11045;DHT22;9786;42.714;23.272;2024-03-22T09:37:27;18.40;32.70
11045;DHT22;9786;42.714;23.272;2024-03-22T09:39:57;18.10;31.80
11045;DHT22;9786;42.714;23.272;2024-03-22T09:42:26;17.40;31.90
11045;DHT22;9786;42.714;23.272;2024-03-22T09:44:55;17.00;31.30
11045;DHT22;9786;42.714;23.272;2024-03-22T09:47:25;16.70;32.80
11045;DHT22;9786;42.714;23.272;2024-03-22T09:49:53;16.30;33.30
11045;DHT22;9786;42.714;23.272;2024-03-22T09:52:23;15.40;33.90
11045;DHT22;9786;42.714;23.272;2024-03-22T09:54:52;15.40;34.80
11045;DHT22;9786;42.714;23.272;2024-03-22T09:57:21;16.10;36.30
11045;DHT22;9786;42.714;23.272;2024-03-22T09:59:52;15.50;34.20
11045;DHT22;9786;42.714;23.272;2024-03-22T10:02:22;16.30;34.50
11045;DHT22;9786;42.714;23.272;2024-03-22T10:04:50;16.10;34.30
11045;DHT22;9786;42.714;23.272;2024-03-22T10:07:19;17.00;33.60
11045;DHT22;9786;42.714;23.272;2024-03-22T10:09:46;16.90;32.30
11045;DHT22;9786;42.714;23.272;2024-03-22T10:12:18;17.50;32.00
11045;DHT22;9786;42.714;23.272;2024-03-22T10:14:45;16.60;31.60
11045;DHT22;9786;42.714;23.272;2024-03-22T10:17:13;16.60;33.50
11045;DHT22;9786;42.714;23.272;2024-03-22T10:19:42;16.60;34.20
11045;DHT22;9786;42.714;23.272;2024-03-22T10:22:11;16.50;33.90
11045;DHT22;9786;42.714;23.272;2024-03-22T10:24:40;16.60;32.90
11045;DHT22;9786;42.714;23.272;2024-03-22T10:27:09;17.50;31.90
11045;DHT22;9786;42.714;23.272;2024-03-22T10:29:38;18.00;32.80
11045;DHT22;9786;42.714;23.272;2024-03-22T10:32:08;17.90;33.50
11045;DHT22;9786;42.714;23.272;2024-03-22T10:34:38;16.40;31.80
11045;DHT22;9786;42.714;23.272;2024-03-22T10:37:09;16.80;32.60
11045;DHT22;9786;42.714;23.272;2024-03-22T10:39:39;17.10;32.80
11045;DHT22;9786;42.714;23.272;2024-03-22T10:42:07;17.00;33.50
11045;DHT22;9786;42.714;23.272;2024-03-22T10:44:39;17.20;33.50
11045;DHT22;9786;42.714;23.272;2024-03-22T10:47:11;16.60;32.70
11045;DHT22;9786;42.714;23.272;2024-03-22T10:49:43;16.10;33.10
11045;DHT22;9786;42.714;23.272;2024-03-22T10:52:16;16.50;34.20
11045;DHT22;9786;42.714;23.272;2024-03-22T10:54:45;16.40;31.90
11045;DHT22;9786;42.714;23.272;2024-03-22T10:57:15;16.70;32.70
11045;DHT22;9786;42.714;23.272;2024-03-22T10:59:46;17.40;32.10
11045;DHT22;9786;42.714;23.272;2024-03-22T11:02:17;18.10;30.50
11045;DHT22;9786;42.714;23.272;2024-03-22T11:04:54;18.30;30.90
11045;DHT22;9786;42.714;23.272;2024-03-22T11:07:22;17.60;30.10
11045;DHT22;9786;42.714;23.272;2024-03-22T11:09:52;17.50;31.30
11045;DHT22;9786;42.714;23.272;2024-03-22T11:12:20;16.90;31.20
11045;DHT22;9786;42.714;23.272;2024-03-22T11:14:49;15.40;33.40
11045;DHT22;9786;42.714;23.272;2024-03-22T11:17:18;15.20;35.30
11045;DHT22;9786;42.714;23.272;2024-03-22T11:19:45;14.40;35.50
11045;DHT22;9786;42.714;23.272;2024-03-22T11:22:17;14.40;36.50
11045;DHT22;9786;42.714;23.272;2024-03-22T11:24:45;15.00;37.70
11045;DHT22;9786;42.714;23.272;2024-03-22T11:27:13;15.10;34.80
11045;DHT22;9786;42.714;23.272;2024-03-22T11:29:40;14.70;34.30
11045;DHT22;9786;42.714;23.272;2024-03-22T11:32:14;15.10;34.70
11045;DHT22;9786;42.714;23.272;2024-03-22T11:34:41;15.00;34.40
11045;DHT22;9786;42.714;23.272;2024-03-22T11:37:09;14.70;34.50
11045;DHT22;9786;42.714;23.272;2024-03-22T11:39:37;14.10;35.30
11045;DHT22;9786;42.714;23.272;2024-03-22T11:42:09;14.80;35.70
11045;DHT22;9786;42.714;23.272;2024-03-22T11:44:42;15.00;35.40
11045;DHT22;9786;42.714;23.272;2024-03-22T11:47:14;15.10;34.90
11045;DHT22;9786;42.714;23.272;2024-03-22T11:49:41;15.30;34.80
11045;DHT22;9786;42.714;23.272;2024-03-22T11:52:10;15.50;34.40
11045;DHT22;9786;42.714;23.272;2024-03-22T11:54:39;15.70;34.50
11045;DHT22;9786;42.714;23.272;2024-03-22T11:57:09;16.70;33.30
11045;DHT22;9786;42.714;23.272;2024-03-22T11:59:40;16.60;31.30
11045;DHT22;9786;42.714;23.272;2024-03-22T12:02:11;16.20;32.10
11045;DHT22;9786;42.714;23.272;2024-03-22T12:04:46;16.60;33.60
11045;DHT22;9786;42.714;23.272;2024-03-22T12:07:18;16.00;31.80
11045;DHT22;9786;42.714;23.272;2024-03-22T12:09:45;15.70;32.50
11045;DHT22;9786;42.714;23.272;2024-03-22T12:12:14;15.30;34.00
11045;DHT22;9786;42.714;23.272;2024-03-22T12:14:44;14.80;33.70
11045;DHT22;9786;42.714;23.272;2024-03-22T12:17:12;14.70;34.20
11045;DHT22;9786;42.714;23.272;2024-03-22T12:19:39;14.50;35.30
11045;DHT22;9786;42.714;23.272;2024-03-22T12:22:12;14.30;34.90
11045;DHT22;9786;42.714;23.272;2024-03-22T12:24:38;14.40;35.20
11045;DHT22;9786;42.714;23.272;2024-03-22T12:27:07;14.40;35.60
11045;DHT22;9786;42.714;23.272;2024-03-22T12:29:36;15.00;37.80
11045;DHT22;9786;42.714;23.272;2024-03-22T12:32:04;15.60;37.10
11045;DHT22;9786;42.714;23.272;2024-03-22T12:34:31;16.00;36.50
11045;DHT22;9786;42.714;23.272;2024-03-22T12:37:00;16.20;33.90
11045;DHT22;9786;42.714;23.272;2024-03-22T12:39:29;16.00;34.10
11045;DHT22;9786;42.714;23.272;2024-03-22T12:41:59;16.00;34.70
11045;DHT22;9786;42.714;23.272;2024-03-22T12:44:26;16.00;33.80
11045;DHT22;9786;42.714;23.272;2024-03-22T12:46:54;16.00;35.30
11045;DHT22;9786;42.714;23.272;2024-03-22T12:49:22;16.60;33.70
11045;DHT22;9786;42.714;23.272;2024-03-22T12:51:51;16.50;33.20
11045;DHT22;9786;42.714;23.272;2024-03-22T12:54:18;16.50;34.00
11045;DHT22;9786;42.714;23.272;2024-03-22T12:56:51;15.50;32.60
11045;DHT22;9786;42.714;23.272;2024-03-22T12:59:19;15.60;32.90
11045;DHT22;9786;42.714;23.272;2024-03-22T13:01:47;15.40;32.80
11045;DHT22;9786;42.714;23.272;2024-03-22T13:04:14;14.90;33.20
11045;DHT22;9786;42.714;23.272;2024-03-22T13:06:44;14.90;33.60
11045;DHT22;9786;42.714;23.272;2024-03-22T13:09:14;14.80;34.70
11045;DHT22;9786;42.714;23.272;2024-03-22T13:11:47;14.60;34.40
11045;DHT22;9786;42.714;23.272;2024-03-22T13:14:15;14.60;35.20
11045;DHT22;9786;42.714;23.272;2024-03-22T13:16:43;14.30;35.00
11045;DHT22;9786;42.714;23.272;2024-03-22T13:19:10;14.30;35.70
11045;DHT22;9786;42.714;23.272;2024-03-22T13:21:42;14.00;35.20
11045;DHT22;9786;42.714;23.272;2024-03-22T13:24:14;13.90;35.30
11045;DHT22;9786;42.714;23.272;2024-03-22T13:26:42;13.80;35.70
11045;DHT22;9786;42.714;23.272;2024-03-22T13:29:10;14.00;36.50
11045;DHT22;9786;42.714;23.272;2024-03-22T13:31:44;14.10;35.00
11045;DHT22;9786;42.714;23.272;2024-03-22T13:34:12;14.20;35.10
11045;DHT22;9786;42.714;23.272;2024-03-22T13:36:41;14.40;35.10
11045;DHT22;9786;42.714;23.272;2024-03-22T13:39:08;14.80;34.80
11045;DHT22;9786;42.714;23.272;2024-03-22T13:41:37;15.00;35.00
11045;DHT22;9786;42.714;23.272;2024-03-22T13:44:05;15.00;33.70
11045;DHT22;9786;42.714;23.272;2024-03-22T13:46:35;14.70;33.20
11045;DHT22;9786;42.714;23.272;2024-03-22T13:49:04;14.70;33.50
11045;DHT22;9786;42.714;23.272;2024-03-22T13:51:43;14.50;32.90
11045;DHT22;9786;42.714;23.272;2024-03-22T13:54:12;14.30;34.10
11045;DHT22;9786;42.714;23.272;2024-03-22T13:56:43;14.20;33.00
11045;DHT22;9786;42.714;23.272;2024-03-22T13:59:10;14.40;33.60
11045;DHT22;9786;42.714;23.272;2024-03-22T14:01:39;14.70;32.90
11045;DHT22;9786;42.714;23.272;2024-03-22T14:04:11;14.70;32.90
11045;DHT22;9786;42.714;23.272;2024-03-22T14:06:43;14.90;33.50
11045;DHT22;9786;42.714;23.272;2024-03-22T14:09:13;15.30;34.60
11045;DHT22;9786;42.714;23.272;2024-03-22T14:11:42;15.40;34.30
11045;DHT22;9786;42.714;23.272;2024-03-22T14:14:10;15.40;33.50
11045;DHT22;9786;42.714;23.272;2024-03-22T14:16:38;15.30;33.30
11045;DHT22;9786;42.714;23.272;2024-03-22T14:19:06;15.30;33.00
11045;DHT22;9786;42.714;23.272;2024-03-22T14:21:37;15.40;33.60
11045;DHT22;9786;42.714;23.272;2024-03-22T14:24:06;15.40;33.00
11045;DHT22;9786;42.714;23.272;2024-03-22T14:26:35;15.20;33.20
11045;DHT22;9786;42.714;23.272;2024-03-22T14:29:08;15.20;33.00
11045;DHT22;9786;42.714;23.272;2024-03-22T14:31:39;15.20;32.90
11045;DHT22;9786;42.714;23.272;2024-03-22T14:34:18;14.80;32.70
11045;DHT22;9786;42.714;23.272;2024-03-22T14:36:47;15.00;33.00
11045;DHT22;9786;42.714;23.272;2024-03-22T14:39:14;15.10;33.30
11045;DHT22;9786;42.714;23.272;2024-03-22T14:41:48;15.00;33.00
11045;DHT22;9786;42.714;23.272;2024-03-22T14:44:14;15.00;33.00
11045;DHT22;9786;42.714;23.272;2024-03-22T14:46:43;15.10;32.60
11045;DHT22;9786;42.714;23.272;2024-03-22T14:49:13;14.90;32.50
11045;DHT22;9786;42.714;23.272;2024-03-22T14:51:41;14.50;33.20
11045;DHT22;9786;42.714;23.272;2024-03-22T14:54:12;14.70;33.60
11045;DHT22;9786;42.714;23.272;2024-03-22T14:56:39;14.80;33.60
11045;DHT22;9786;42.714;23.272;2024-03-22T14:59:07;14.90;33.40
11045;DHT22;9786;42.714;23.272;2024-03-22T15:01:45;15.00;33.40
11045;DHT22;9786;42.714;23.272;2024-03-22T15:04:15;14.80;33.40
11045;DHT22;9786;42.714;23.272;2024-03-22T15:06:46;14.70;33.60
11045;DHT22;9786;42.714;23.272;2024-03-22T15:09:19;14.70;34.40
11045;DHT22;9786;42.714;23.272;2024-03-22T15:11:48;14.70;33.70
11045;DHT22;9786;42.714;23.272;2024-03-22T15:14:16;14.70;33.80
11045;DHT22;9786;42.714;23.272;2024-03-22T15:16:49;14.80;33.90
11045;DHT22;9786;42.714;23.272;2024-03-22T15:19:16;14.80;34.20
11045;DHT22;9786;42.714;23.272;2024-03-22T15:21:45;14.70;33.90
11045;DHT22;9786;42.714;23.272;2024-03-22T15:24:12;14.80;34.00
11045;DHT22;9786;42.714;23.272;2024-03-22T15:26:47;14.90;33.50
11045;DHT22;9786;42.714;23.272;2024-03-22T15:29:14;14.90;33.30
11045;DHT22;9786;42.714;23.272;2024-03-22T15:31:43;14.80;32.90
11045;DHT22;9786;42.714;23.272;2024-03-22T15:34:13;14.20;34.10
11045;DHT22;9786;42.714;23.272;2024-03-22T15:36:42;14.10;34.80
11045;DHT22;9786;42.714;23.272;2024-03-22T15:39:09;14.00;35.60
11045;DHT22;9786;42.714;23.272;2024-03-22T15:41:38;13.80;34.90
11045;DHT22;9786;42.714;23.272;2024-03-22T15:44:06;13.70;35.10
11045;DHT22;9786;42.714;23.272;2024-03-22T15:46:35;13.90;35.40